Time;durP1;ratioP1;P1;durP2;ratioP2;P2;SDS_P1;SDS_P2;PMS_P1;PMS_P2;Temp;Humidity;BMP_temperature;BMP_pressure;BME280_temperature;BME280_humidity;BME280_pressure;Samples;Min_cycle;Max_cycle;Signal;HPM_P1;HPM_P2
2024/03/04 00:02:14;;;;;;;39.00;21.42;;;7.80;99.90;;;;;;5059751;28;20488;-53
2024/03/04 00:04:39;;;;;;;46.78;28.60;;;7.80;99.90;;;;;;5060018;28;20115;-48
2024/03/04 00:07:05;;;;;;;48.03;27.83;;;7.70;99.90;;;;;;5061015;28;20082;-53
2024/03/04 00:09:30;;;;;;;51.50;27.90;;;7.80;99.90;;;;;;5058891;28;20033;-53
2024/03/04 00:11:56;;;;;;;45.60;25.98;;;7.80;99.90;;;;;;5059428;28;20433;-50
2024/03/04 00:14:23;;;;;;;44.08;24.55;;;7.70;99.90;;;;;;5059208;28;20111;-52
2024/03/04 00:16:48;;;;;;;47.17;25.73;;;7.70;99.90;;;;;;5059422;28;20033;-52
2024/03/04 00:19:18;;;;;;;46.45;25.88;;;7.70;99.90;;;;;;5059072;28;20058;-50
2024/03/04 00:21:47;;;;;;;44.88;25.60;;;7.60;99.90;;;;;;5060895;28;20017;-53
2024/03/04 00:24:13;;;;;;;45.30;24.25;;;7.70;99.90;;;;;;5057110;28;20027;-50
2024/03/04 00:26:38;;;;;;;50.97;28.88;;;7.60;99.90;;;;;;5057974;28;20028;-52
2024/03/04 00:29:04;;;;;;;49.92;28.70;;;7.60;99.90;;;;;;5054136;28;20039;-51
2024/03/04 00:31:33;;;;;;;51.00;27.77;;;7.60;99.90;;;;;;5054951;28;20714;-53
2024/03/04 00:33:59;;;;;;;46.88;28.23;;;7.60;99.90;;;;;;5059442;28;20645;-53
2024/03/04 00:36:26;;;;;;;58.65;33.58;;;7.60;99.90;;;;;;5059130;28;20044;-49
2024/03/04 00:38:52;;;;;;;48.05;28.13;;;7.60;99.90;;;;;;5052059;28;20025;-50
2024/03/04 00:41:27;;;;;;;51.55;29.30;;;7.60;99.90;;;;;;5060831;28;20041;-48
2024/03/04 00:43:53;;;;;;;52.00;28.85;;;7.60;99.90;;;;;;5059081;28;20444;-53
2024/03/04 00:46:21;;;;;;;56.00;29.58;;;7.60;99.90;;;;;;5060872;28;20443;-47
2024/03/04 00:48:48;;;;;;;54.35;30.48;;;7.50;99.90;;;;;;5060718;28;20506;-51
2024/03/04 00:51:13;;;;;;;55.75;32.70;;;7.50;99.90;;;;;;5058983;28;20028;-50
2024/03/04 00:53:40;;;;;;;54.85;31.13;;;7.60;99.90;;;;;;5058832;28;20029;-51
2024/03/04 00:56:07;;;;;;;69.35;37.83;;;7.50;99.90;;;;;;5058952;28;20021;-49
2024/03/04 00:58:35;;;;;;;58.33;31.42;;;7.60;99.90;;;;;;5058615;28;20028;-52
2024/03/04 01:01:01;;;;;;;69.95;37.17;;;7.60;99.90;;;;;;5058953;28;20029;-51
2024/03/04 01:03:26;;;;;;;65.57;36.13;;;7.50;99.90;;;;;;5058767;28;20031;-50
2024/03/04 01:05:52;;;;;;;66.55;37.88;;;7.60;99.90;;;;;;5056663;28;20044;-47
2024/03/04 01:08:18;;;;;;;62.50;34.63;;;7.60;99.90;;;;;;5058517;28;20043;-48
2024/03/04 01:10:44;;;;;;;62.05;35.22;;;7.70;99.90;;;;;;5058485;28;20740;-50
2024/03/04 01:13:10;;;;;;;68.20;39.90;;;7.70;99.90;;;;;;5059066;28;20020;-52
2024/03/04 01:15:35;;;;;;;58.72;33.72;;;7.70;99.90;;;;;;5058577;28;20060;-48
2024/03/04 01:18:02;;;;;;;64.57;37.15;;;7.60;99.90;;;;;;5058739;28;20112;-51
2024/03/04 01:20:28;;;;;;;67.53;38.15;;;7.70;99.90;;;;;;5060381;28;20024;-49
2024/03/04 01:22:54;;;;;;;63.83;37.85;;;7.60;99.90;;;;;;5058596;28;20017;-50
2024/03/04 01:25:19;;;;;;;68.10;34.88;;;7.60;99.90;;;;;;5058136;28;20033;-47
2024/03/04 01:27:45;;;;;;;62.88;37.05;;;7.50;99.90;;;;;;5058665;28;20029;-51
2024/03/04 01:30:14;;;;;;;73.25;42.13;;;7.50;99.90;;;;;;5058555;28;20016;-50
2024/03/04 01:32:40;;;;;;;87.10;46.85;;;7.50;99.90;;;;;;5058436;28;20060;-52
2024/03/04 01:35:07;;;;;;;63.65;37.17;;;7.50;99.90;;;;;;5058330;28;20021;-49
2024/03/04 01:37:33;;;;;;;66.70;36.30;;;7.50;99.90;;;;;;5060405;28;20039;-51
2024/03/04 01:39:58;;;;;;;62.05;33.10;;;7.50;99.90;;;;;;5052160;28;20375;-49
2024/03/04 01:42:25;;;;;;;79.40;42.63;;;7.50;99.90;;;;;;5061418;28;20089;-52
2024/03/04 01:44:50;;;;;;;73.30;38.58;;;7.40;99.90;;;;;;5062331;28;20025;-53
2024/03/04 01:47:20;;;;;;;73.00;41.65;;;7.40;99.90;;;;;;5061955;28;20036;-47
2024/03/04 01:49:47;;;;;;;71.85;40.30;;;7.40;99.90;;;;;;5061721;28;20032;-51
2024/03/04 01:52:14;;;;;;;81.10;45.08;;;7.40;99.90;;;;;;5062048;28;20077;-52
2024/03/04 01:54:43;;;;;;;66.95;39.40;;;7.40;99.90;;;;;;5059202;28;20032;-50
2024/03/04 01:57:11;;;;;;;71.30;40.10;;;7.40;99.90;;;;;;5059498;28;20028;-52
2024/03/04 01:59:38;;;;;;;82.95;45.78;;;7.40;99.90;;;;;;5059517;28;20024;-51
2024/03/04 02:02:05;;;;;;;71.57;40.20;;;7.40;99.90;;;;;;5061858;28;20096;-51
2024/03/04 02:04:31;;;;;;;76.20;42.63;;;7.40;99.90;;;;;;5057201;28;20108;-52
2024/03/04 02:06:56;;;;;;;83.00;42.78;;;7.30;99.90;;;;;;5061431;28;20068;-50
2024/03/04 02:09:26;;;;;;;73.50;39.42;;;7.30;99.90;;;;;;5061639;28;20028;-51
2024/03/04 02:11:52;;;;;;;73.38;42.20;;;7.30;99.90;;;;;;5059450;28;20121;-50
2024/03/04 02:14:17;;;;;;;67.13;38.75;;;7.30;99.90;;;;;;5061766;28;20494;-51
2024/03/04 02:16:44;;;;;;;81.57;46.08;;;7.30;99.90;;;;;;5062996;28;20031;-49
2024/03/04 02:19:13;;;;;;;71.03;39.45;;;7.20;99.90;;;;;;5058983;28;20025;-49
2024/03/04 02:21:50;;;;;;;85.10;48.17;;;7.20;99.90;;;;;;5061213;28;20441;-51
2024/03/04 02:24:16;;;;;;;72.70;41.88;;;7.20;99.90;;;;;;5061320;28;20112;-50
2024/03/04 02:26:43;;;;;;;72.50;41.40;;;7.20;99.90;;;;;;5062874;28;20120;-53
2024/03/04 02:29:10;;;;;;;75.57;42.63;;;7.20;99.90;;;;;;5059194;28;20021;-51
2024/03/04 02:31:36;;;;;;;77.07;44.20;;;7.20;99.90;;;;;;5061019;28;20020;-53
2024/03/04 02:34:02;;;;;;;77.65;41.53;;;7.20;99.90;;;;;;5060959;28;20028;-52
2024/03/04 02:36:27;;;;;;;86.75;46.10;;;7.10;99.90;;;;;;5061063;28;20093;-49
2024/03/04 02:38:53;;;;;;;75.88;43.75;;;7.10;99.90;;;;;;5057718;28;20547;-50
2024/03/04 02:41:19;;;;;;;82.75;45.03;;;7.10;99.90;;;;;;5062644;28;20493;-48
2024/03/04 02:43:47;;;;;;;74.13;42.80;;;7.10;99.90;;;;;;5058748;28;20062;-52
2024/03/04 02:46:14;;;;;;;89.70;48.88;;;7.10;99.90;;;;;;5060987;28;20028;-50
2024/03/04 02:48:40;;;;;;;76.57;42.20;;;7.00;99.90;;;;;;5060537;28;20604;-50
2024/03/04 02:51:06;;;;;;;83.25;45.97;;;7.00;99.90;;;;;;5060630;28;20031;-52
2024/03/04 02:53:31;;;;;;;79.35;45.65;;;7.00;99.90;;;;;;5060196;28;20099;-54
2024/03/04 02:55:57;;;;;;;82.00;45.63;;;7.00;99.90;;;;;;5060387;28;20032;-49
2024/03/04 02:58:22;;;;;;;94.13;49.35;;;7.00;99.90;;;;;;5062240;28;20028;-51
2024/03/04 03:00:48;;;;;;;74.07;43.72;;;7.00;99.90;;;;;;5060577;28;20432;-47
2024/03/04 03:03:13;;;;;;;82.18;42.88;;;6.90;99.90;;;;;;5060380;28;20506;-50
2024/03/04 03:05:39;;;;;;;75.28;43.20;;;6.90;99.90;;;;;;5059289;28;20033;-52
2024/03/04 03:08:05;;;;;;;83.63;46.83;;;6.80;99.90;;;;;;5058254;28;20054;-52
2024/03/04 03:10:30;;;;;;;92.40;49.08;;;6.80;99.90;;;;;;5060220;28;20170;-51
2024/03/04 03:12:56;;;;;;;93.75;48.97;;;6.80;99.90;;;;;;5061942;28;20021;-53
2024/03/04 03:15:21;;;;;;;78.00;44.83;;;6.80;99.90;;;;;;5060581;28;20017;-48
2024/03/04 03:17:47;;;;;;;84.20;46.60;;;6.80;99.90;;;;;;5055936;28;20033;-54
2024/03/04 03:20:16;;;;;;;84.45;46.83;;;6.80;99.90;;;;;;5056061;28;20023;-49
2024/03/04 03:22:44;;;;;;;82.40;47.05;;;6.80;99.90;;;;;;5060403;28;20039;-49
2024/03/04 03:25:11;;;;;;;80.82;41.80;;;6.80;99.90;;;;;;5057865;28;20020;-52
2024/03/04 03:27:37;;;;;;;89.00;48.95;;;6.70;99.90;;;;;;5057445;28;20583;-53
2024/03/04 03:30:04;;;;;;;100.13;50.50;;;6.70;99.90;;;;;;5059723;28;20048;-53
2024/03/04 03:32:30;;;;;;;99.75;51.53;;;6.70;99.90;;;;;;5059981;28;20508;-50
2024/03/04 03:34:56;;;;;;;92.80;48.90;;;6.70;99.90;;;;;;5061792;28;20115;-51
2024/03/04 03:37:21;;;;;;;97.03;51.63;;;6.60;99.90;;;;;;5059579;28;20039;-50
2024/03/04 03:39:47;;;;;;;99.35;51.65;;;6.60;99.90;;;;;;5055447;28;20153;-52
2024/03/04 03:42:13;;;;;;;88.53;47.35;;;6.70;99.90;;;;;;5059833;28;20390;-53
2024/03/04 03:44:39;;;;;;;90.13;48.67;;;6.60;99.90;;;;;;5057794;28;20035;-49
2024/03/04 03:47:04;;;;;;;92.43;51.42;;;6.60;99.90;;;;;;5060041;28;20035;-52
2024/03/04 03:49:30;;;;;;;95.18;52.45;;;6.60;99.90;;;;;;5059531;28;20424;-50
2024/03/04 03:51:55;;;;;;;94.05;51.13;;;6.60;99.90;;;;;;5061415;28;20055;-49
2024/03/04 03:54:21;;;;;;;90.50;49.20;;;6.60;99.90;;;;;;5059757;28;20061;-48
2024/03/04 03:56:46;;;;;;;89.40;47.85;;;6.50;99.90;;;;;;5058007;28;20029;-48
2024/03/04 03:59:12;;;;;;;92.88;50.25;;;6.50;99.90;;;;;;5059233;28;20029;-49
2024/03/04 04:01:37;;;;;;;96.55;51.42;;;6.40;99.90;;;;;;5059502;28;20401;-47
2024/03/04 04:04:04;;;;;;;94.20;53.47;;;6.40;99.90;;;;;;5056987;28;20086;-49
2024/03/04 04:06:29;;;;;;;104.60;53.88;;;6.40;99.90;;;;;;5052540;28;20475;-52
2024/03/04 04:08:55;;;;;;;103.53;57.38;;;6.40;99.90;;;;;;5058907;28;20028;-53
2024/03/04 04:11:20;;;;;;;91.47;51.25;;;6.50;99.90;;;;;;5053498;28;20071;-52
2024/03/04 04:13:46;;;;;;;97.95;54.72;;;6.40;99.90;;;;;;5057637;28;20033;-52
2024/03/04 04:16:11;;;;;;;106.72;55.13;;;6.40;99.90;;;;;;5053060;28;20012;-52
2024/03/04 04:18:37;;;;;;;113.30;62.08;;;6.40;99.90;;;;;;5054802;28;20026;-48
2024/03/04 04:21:07;;;;;;;100.43;54.70;;;6.40;99.90;;;;;;5057028;28;20085;-52
2024/03/04 04:23:33;;;;;;;107.35;57.60;;;6.40;99.90;;;;;;5056507;28;20077;-48
2024/03/04 04:25:59;;;;;;;128.90;65.78;;;6.30;99.90;;;;;;5059334;28;20013;-49
2024/03/04 04:28:25;;;;;;;112.65;59.88;;;6.40;99.90;;;;;;5058831;28;20039;-51
2024/03/04 04:30:51;;;;;;;97.82;54.92;;;6.30;99.90;;;;;;5054694;28;20035;-50
2024/03/04 04:33:18;;;;;;;106.07;58.03;;;6.30;99.90;;;;;;5059286;28;20520;-50
2024/03/04 04:35:43;;;;;;;106.20;58.72;;;6.30;99.90;;;;;;5058937;28;20029;-52
2024/03/04 04:38:09;;;;;;;94.20;50.05;;;6.30;99.90;;;;;;5060301;28;20119;-52
2024/03/04 04:40:35;;;;;;;121.28;62.38;;;6.20;99.90;;;;;;5055236;28;20892;-49
2024/03/04 04:43:01;;;;;;;120.00;61.60;;;6.20;99.90;;;;;;5058993;28;20397;-51
2024/03/04 04:45:26;;;;;;;107.15;60.90;;;6.20;99.90;;;;;;5058652;28;20147;-49
2024/03/04 04:47:53;;;;;;;105.50;51.75;;;6.20;99.90;;;;;;5050600;28;20402;-52
2024/03/04 04:50:19;;;;;;;99.75;53.67;;;6.20;99.90;;;;;;5054937;28;20023;-52
2024/03/04 04:52:44;;;;;;;106.00;54.28;;;6.10;99.90;;;;;;5059004;28;20107;-49
2024/03/04 04:55:10;;;;;;;111.85;58.63;;;6.10;99.90;;;;;;5057282;28;20044;-51
2024/03/04 04:57:35;;;;;;;109.78;55.03;;;6.10;99.90;;;;;;5054095;28;20524;-50
2024/03/04 05:00:01;;;;;;;101.68;55.35;;;6.10;99.90;;;;;;5054317;28;20043;-47
2024/03/04 05:02:27;;;;;;;109.45;57.85;;;6.00;99.90;;;;;;5057023;28;20016;-49
2024/03/04 05:04:52;;;;;;;108.07;58.17;;;6.00;99.90;;;;;;5054313;28;20367;-51
2024/03/04 05:07:18;;;;;;;108.95;57.95;;;6.00;99.90;;;;;;5056530;28;20067;-51
2024/03/04 05:09:43;;;;;;;104.78;54.40;;;6.00;99.90;;;;;;5054012;28;20557;-51
2024/03/04 05:12:09;;;;;;;105.53;56.83;;;6.00;99.90;;;;;;5058165;28;20066;-52
2024/03/04 05:14:36;;;;;;;102.75;50.10;;;6.00;99.90;;;;;;5057744;28;20517;-51
2024/03/04 05:17:02;;;;;;;101.72;53.35;;;6.00;99.90;;;;;;5053018;28;20021;-48
2024/03/04 05:19:34;;;;;;;106.80;60.42;;;6.00;99.90;;;;;;5062236;28;20041;-48
2024/03/04 05:22:00;;;;;;;106.05;57.30;;;6.00;99.90;;;;;;5062178;28;20025;-51
2024/03/04 05:24:26;;;;;;;108.85;56.97;;;6.00;99.90;;;;;;5062558;28;20024;-49
2024/03/04 05:26:51;;;;;;;112.38;59.72;;;6.10;99.90;;;;;;5064105;28;20024;-48
2024/03/04 05:29:17;;;;;;;119.38;61.40;;;6.10;99.90;;;;;;5062152;28;20486;-51
2024/03/04 05:31:53;;;;;;;116.40;58.95;;;6.10;99.90;;;;;;5061506;28;20036;-51
2024/03/04 05:34:18;;;;;;;;;;;6.10;99.90;;;;;;5061732;28;20786;-50
2024/03/04 05:36:44;;;;;;;120.90;59.53;;;6.10;99.90;;;;;;5059344;28;20015;-49
2024/03/04 05:39:10;;;;;;;100.43;54.28;;;6.20;99.90;;;;;;5054550;28;20644;-51
2024/03/04 05:41:37;;;;;;;116.35;59.80;;;6.20;99.90;;;;;;5062093;28;20021;-52
2024/03/04 05:44:03;;;;;;;103.07;55.83;;;6.20;99.90;;;;;;5061779;28;20016;-51
2024/03/04 05:46:29;;;;;;;120.10;63.45;;;6.10;99.90;;;;;;5063778;28;20060;-50
2024/03/04 05:48:55;;;;;;;118.75;60.58;;;6.10;99.90;;;;;;5063356;28;20052;-47
2024/03/04 05:51:21;;;;;;;117.32;61.90;;;6.20;99.90;;;;;;5062111;28;20112;-49
2024/03/04 05:53:48;;;;;;;116.57;60.53;;;6.20;99.90;;;;;;5061704;28;20496;-52
2024/03/04 05:56:14;;;;;;;101.90;54.65;;;6.20;99.90;;;;;;5061261;28;20028;-47
2024/03/04 05:58:40;;;;;;;120.28;63.15;;;6.20;99.90;;;;;;5061465;28;20035;-53
2024/03/04 06:01:06;;;;;;;110.95;58.35;;;6.30;99.90;;;;;;5063028;28;20021;-52
2024/03/04 06:03:31;;;;;;;105.18;57.95;;;6.30;99.90;;;;;;5063030;28;20170;-49
2024/03/04 06:05:57;;;;;;;99.57;50.58;;;6.40;99.90;;;;;;5061546;28;20497;-49
2024/03/04 06:08:22;;;;;;;102.00;57.30;;;6.40;99.90;;;;;;5059183;28;20096;-55
2024/03/04 06:10:48;;;;;;;105.55;53.80;;;6.40;99.90;;;;;;5060262;28;20409;-51
2024/03/04 06:13:14;;;;;;;104.57;55.67;;;6.40;99.90;;;;;;5061338;28;20031;-51
2024/03/04 06:15:40;;;;;;;111.43;59.80;;;6.50;99.90;;;;;;5063161;28;20055;-49
2024/03/04 06:18:06;;;;;;;104.72;54.78;;;6.50;99.90;;;;;;5061740;28;20579;-50
2024/03/04 06:20:31;;;;;;;105.03;56.55;;;6.60;99.90;;;;;;5060784;28;20087;-48
2024/03/04 06:22:57;;;;;;;86.20;49.10;;;6.60;99.90;;;;;;5056909;28;20498;-50
2024/03/04 06:25:23;;;;;;;83.30;47.30;;;6.60;99.90;;;;;;5061287;28;20333;-50
2024/03/04 06:27:49;;;;;;;92.13;49.67;;;6.60;99.90;;;;;;5059489;28;20040;-52
2024/03/04 06:30:15;;;;;;;88.03;49.88;;;6.80;99.90;;;;;;5061042;28;20024;-49
2024/03/04 06:32:41;;;;;;;95.57;52.47;;;7.00;99.90;;;;;;5062905;28;20059;-50
2024/03/04 06:35:07;;;;;;;97.47;51.92;;;7.20;99.90;;;;;;5060403;28;20040;-49
2024/03/04 06:37:33;;;;;;;78.93;44.15;;;7.40;99.90;;;;;;5059361;28;20032;-50
2024/03/04 06:39:59;;;;;;;83.85;47.97;;;7.60;99.90;;;;;;5054044;28;20309;-48
2024/03/04 06:42:24;;;;;;;72.75;43.55;;;7.70;99.90;;;;;;5060743;28;20021;-49
2024/03/04 06:44:50;;;;;;;76.28;44.35;;;7.90;99.90;;;;;;5060558;28;20048;-48
2024/03/04 06:47:15;;;;;;;73.53;43.33;;;8.10;99.90;;;;;;5060361;28;20082;-47
2024/03/04 06:49:41;;;;;;;73.38;42.70;;;8.30;99.90;;;;;;5058019;28;20504;-48
2024/03/04 06:52:08;;;;;;;74.15;43.15;;;8.40;99.90;;;;;;5060021;28;20653;-49
2024/03/04 06:54:33;;;;;;;66.43;38.97;;;8.60;99.90;;;;;;5060430;28;20032;-46
2024/03/04 06:56:59;;;;;;;60.20;35.85;;;8.80;99.90;;;;;;5058827;28;20027;-50
2024/03/04 06:59:24;;;;;;;68.47;39.60;;;9.00;99.90;;;;;;5060050;28;20125;-47
2024/03/04 07:01:50;;;;;;;63.75;37.45;;;9.20;99.90;;;;;;5060240;28;20433;-49
2024/03/04 07:04:15;;;;;;;73.03;41.25;;;9.30;99.90;;;;;;5062243;28;20081;-47
2024/03/04 07:06:41;;;;;;;65.45;39.50;;;9.20;99.90;;;;;;5059793;28;20516;-46
2024/03/04 07:09:06;;;;;;;64.45;38.05;;;9.20;99.90;;;;;;5055654;28;20086;-46
2024/03/04 07:11:32;;;;;;;55.47;33.03;;;9.10;99.90;;;;;;5055772;28;20124;-46
2024/03/04 07:13:57;;;;;;;59.05;36.05;;;9.20;99.90;;;;;;5055682;28;20063;-49
2024/03/04 07:16:23;;;;;;;58.95;37.10;;;9.10;99.90;;;;;;5053951;28;20486;-47
2024/03/04 07:18:49;;;;;;;64.22;38.63;;;8.90;99.90;;;;;;5059269;28;20020;-46
2024/03/04 07:21:16;;;;;;;65.20;37.30;;;8.80;99.90;;;;;;5051667;28;20032;-46
2024/03/04 07:23:41;;;;;;;65.63;39.95;;;8.70;99.90;;;;;;5050612;28;20505;-48
2024/03/04 07:26:09;;;;;;;74.68;41.60;;;8.50;99.90;;;;;;5056102;28;20121;-47
2024/03/04 07:28:35;;;;;;;60.17;37.85;;;8.40;99.90;;;;;;5052623;28;20036;-46
2024/03/04 07:31:00;;;;;;;74.00;40.25;;;8.20;99.90;;;;;;5055456;28;20050;-48
2024/03/04 07:33:26;;;;;;;69.03;40.53;;;8.10;99.90;;;;;;5057852;28;20021;-46
2024/03/04 07:35:51;;;;;;;70.35;41.30;;;8.20;99.90;;;;;;5058951;28;20458;-45
2024/03/04 07:38:17;;;;;;;65.97;41.10;;;8.40;99.90;;;;;;5058753;28;20035;-47
2024/03/04 07:40:42;;;;;;;68.68;37.33;;;8.80;99.90;;;;;;5053321;28;20120;-48
2024/03/04 07:43:08;;;;;;;69.78;38.08;;;9.20;99.90;;;;;;5055204;28;20032;-48
2024/03/04 07:45:33;;;;;;;63.03;36.42;;;9.70;99.90;;;;;;5061179;28;20080;-46
2024/03/04 07:47:59;;;;;;;56.40;32.83;;;10.00;99.90;;;;;;5059087;28;20024;-48
2024/03/04 07:50:24;;;;;;;56.10;31.98;;;10.40;99.90;;;;;;5059105;28;20024;-49
2024/03/04 07:52:50;;;;;;;50.50;30.35;;;10.70;99.90;;;;;;5059119;28;20036;-47
2024/03/04 07:55:16;;;;;;;50.47;32.00;;;11.10;99.90;;;;;;5059299;28;20493;-49
2024/03/04 07:57:43;;;;;;;59.50;35.30;;;11.30;99.90;;;;;;5058814;28;20044;-49
2024/03/04 08:00:09;;;;;;;46.88;29.45;;;11.50;99.90;;;;;;5058962;28;20021;-48
2024/03/04 08:02:35;;;;;;;47.97;28.45;;;11.60;99.90;;;;;;5059034;28;20078;-46
2024/03/04 08:05:00;;;;;;;44.88;29.60;;;11.80;99.90;;;;;;5060463;28;20032;-47
2024/03/04 08:07:26;;;;;;;51.60;33.65;;;12.00;99.90;;;;;;5058876;28;20033;-46
2024/03/04 08:09:51;;;;;;;51.47;32.60;;;12.00;97.20;;;;;;5058547;28;20040;-47
2024/03/04 08:12:17;;;;;;;51.05;33.90;;;12.00;96.90;;;;;;5058954;28;20050;-47
2024/03/04 08:14:42;;;;;;;49.33;32.60;;;12.00;95.60;;;;;;5058476;28;20051;-46
2024/03/04 08:17:10;;;;;;;50.70;30.63;;;12.00;95.70;;;;;;5061220;28;20331;-50
2024/03/04 08:19:36;;;;;;;44.28;30.70;;;12.10;94.80;;;;;;5056387;28;20039;-47
2024/03/04 08:22:02;;;;;;;42.40;29.70;;;12.20;94.80;;;;;;5058508;28;20029;-49
2024/03/04 08:24:27;;;;;;;54.10;32.80;;;12.20;94.60;;;;;;5057311;28;20493;-47
2024/03/04 08:26:53;;;;;;;55.05;32.80;;;12.20;94.00;;;;;;5058536;28;20082;-46
2024/03/04 08:29:18;;;;;;;50.03;31.52;;;12.00;94.00;;;;;;5054769;28;20033;-49
2024/03/04 08:31:44;;;;;;;51.30;35.55;;;11.60;93.20;;;;;;5060342;28;20497;-47
2024/03/04 08:34:10;;;;;;;52.78;32.58;;;11.30;93.20;;;;;;5056601;28;20129;-50
2024/03/04 08:36:35;;;;;;;50.00;31.95;;;11.10;92.60;;;;;;5055622;28;20040;-48
2024/03/04 08:39:01;;;;;;;57.22;34.78;;;10.90;93.10;;;;;;5047718;28;20031;-47
2024/03/04 08:41:26;;;;;;;49.20;31.52;;;10.70;94.10;;;;;;5052614;28;20330;-50
2024/03/04 08:43:52;;;;;;;52.85;32.92;;;10.50;94.30;;;;;;5055459;28;20216;-48
2024/03/04 08:46:18;;;;;;;53.88;31.40;;;10.40;94.50;;;;;;5056727;28;20418;-46
2024/03/04 08:48:43;;;;;;;57.30;36.25;;;10.30;95.10;;;;;;5054036;28;20036;-45
2024/03/04 08:51:09;;;;;;;54.58;34.75;;;10.30;95.60;;;;;;5055801;28;20586;-47
2024/03/04 08:53:35;;;;;;;63.92;36.53;;;10.30;95.50;;;;;;5062310;28;20021;-47
2024/03/04 08:56:01;;;;;;;61.22;34.47;;;10.30;96.00;;;;;;5062538;28;20036;-45
2024/03/04 08:58:26;;;;;;;56.30;35.60;;;10.30;95.70;;;;;;5062471;28;20017;-48
2024/03/04 09:00:51;;;;;;;60.97;37.15;;;10.30;95.90;;;;;;5064168;28;20089;-45
2024/03/04 09:03:17;;;;;;;62.63;36.50;;;10.30;95.90;;;;;;5062250;28;20453;-50
2024/03/04 09:05:44;;;;;;;59.00;36.42;;;10.30;95.90;;;;;;5062347;28;20090;-47
2024/03/04 09:08:11;;;;;;;61.13;37.28;;;10.30;95.80;;;;;;5058000;28;20037;-47
2024/03/04 09:10:37;;;;;;;67.55;42.13;;;10.20;95.90;;;;;;5061813;28;20190;-46
2024/03/04 09:13:03;;;;;;;56.95;35.85;;;10.20;96.10;;;;;;5062395;28;20541;-45
2024/03/04 09:15:29;;;;;;;61.47;36.70;;;10.20;96.00;;;;;;5061731;28;20490;-46
2024/03/04 09:17:54;;;;;;;73.05;43.20;;;10.20;96.30;;;;;;5060137;28;20036;-48
2024/03/04 09:20:20;;;;;;;72.70;42.88;;;10.30;96.20;;;;;;5061035;28;20029;-47
2024/03/04 09:22:45;;;;;;;65.28;41.17;;;10.30;96.10;;;;;;5057967;28;20032;-47
2024/03/04 09:25:11;;;;;;;69.05;42.03;;;10.30;96.20;;;;;;5057360;28;20060;-45
2024/03/04 09:27:36;;;;;;;71.22;41.20;;;10.30;96.00;;;;;;5055721;28;20509;-45
2024/03/04 09:30:06;;;;;;;73.75;41.42;;;10.30;96.20;;;;;;5053772;28;20020;-46
2024/03/04 09:32:31;;;;;;;68.30;41.97;;;10.30;96.10;;;;;;5061475;28;20025;-46
2024/03/04 09:34:57;;;;;;;72.75;43.15;;;10.50;96.10;;;;;;5060283;28;20119;-47
2024/03/04 09:37:23;;;;;;;78.38;47.05;;;10.40;95.60;;;;;;5056601;28;20482;-46
2024/03/04 09:39:48;;;;;;;77.93;43.88;;;10.20;95.60;;;;;;5061265;28;20032;-46
2024/03/04 09:42:15;;;;;;;68.38;43.67;;;10.20;96.00;;;;;;5058054;28;20513;-48
2024/03/04 09:44:41;;;;;;;78.78;44.20;;;10.20;96.20;;;;;;5060851;28;20033;-47
2024/03/04 09:47:08;;;;;;;67.88;41.10;;;10.20;96.20;;;;;;5059281;28;20033;-48
2024/03/04 09:49:35;;;;;;;74.55;44.38;;;10.10;96.40;;;;;;5058965;28;20112;-48
2024/03/04 09:52:02;;;;;;;71.72;44.60;;;9.90;96.80;;;;;;5059641;28;20027;-47
2024/03/04 09:54:30;;;;;;;71.03;41.65;;;9.90;97.10;;;;;;5060092;28;20067;-50
2024/03/04 09:56:56;;;;;;;77.93;46.20;;;9.80;97.60;;;;;;5057309;28;20028;-49
2024/03/04 09:59:22;;;;;;;71.35;41.85;;;9.80;98.00;;;;;;5061689;28;20024;-48
2024/03/04 10:01:48;;;;;;;73.13;44.40;;;9.90;98.20;;;;;;5061514;28;20025;-48
2024/03/04 10:04:15;;;;;;;67.82;42.13;;;9.90;98.50;;;;;;5057417;28;20086;-45
2024/03/04 10:06:40;;;;;;;71.00;43.42;;;9.80;98.50;;;;;;5057203;28;20024;-49
2024/03/04 10:09:09;;;;;;;72.72;44.10;;;9.90;98.70;;;;;;5059998;28;20795;-45
2024/03/04 10:11:38;;;;;;;82.13;50.15;;;9.90;98.60;;;;;;5063137;28;20037;-47
2024/03/04 10:14:04;;;;;;;76.13;45.30;;;9.90;98.60;;;;;;5058586;28;20033;-45
2024/03/04 10:16:30;;;;;;;78.50;46.95;;;9.90;98.60;;;;;;5058861;28;20016;-49
2024/03/04 10:18:59;;;;;;;76.10;45.03;;;9.90;99.10;;;;;;5061487;28;20559;-47
2024/03/04 10:21:29;;;;;;;78.28;46.22;;;9.90;98.90;;;;;;5061242;28;20067;-50
2024/03/04 10:23:57;;;;;;;74.25;44.92;;;9.90;99.10;;;;;;5061123;28;20043;-48
2024/03/04 10:26:24;;;;;;;73.18;43.75;;;9.90;99.10;;;;;;5061068;28;20062;-50
2024/03/04 10:28:50;;;;;;;72.15;44.05;;;9.90;99.00;;;;;;5061006;28;20117;-48
2024/03/04 10:31:15;;;;;;;87.43;50.83;;;10.00;99.10;;;;;;5062302;28;20063;-46
2024/03/04 10:33:41;;;;;;;93.05;53.72;;;9.90;98.70;;;;;;5063164;28;20028;-49
2024/03/04 10:36:17;;;;;;;91.55;54.63;;;9.90;98.70;;;;;;5060835;28;20106;-48
2024/03/04 10:38:45;;;;;;;86.10;50.42;;;10.00;98.30;;;;;;5055534;28;20091;-47
2024/03/04 10:41:17;;;;;;;87.05;50.15;;;10.00;98.50;;;;;;5053039;28;20028;-45
2024/03/04 10:43:44;;;;;;;80.07;49.13;;;10.00;98.40;;;;;;5054939;28;20025;-50
2024/03/04 10:46:10;;;;;;;83.55;48.28;;;10.00;98.30;;;;;;5062739;28;20013;-47
2024/03/04 10:48:37;;;;;;;82.07;49.40;;;10.20;98.40;;;;;;5060644;28;20051;-48
2024/03/04 10:51:03;;;;;;;81.40;48.80;;;10.20;98.20;;;;;;5060455;28;20033;-44
2024/03/04 10:53:29;;;;;;;71.55;43.47;;;10.20;98.00;;;;;;5056388;28;20098;-44
2024/03/04 10:56:03;;;;;;;81.47;48.63;;;10.20;97.90;;;;;;5060454;28;20482;-51
2024/03/04 10:58:31;;;;;;;93.65;53.88;;;10.30;97.80;;;;;;5054641;28;20201;-45
2024/03/04 11:00:57;;;;;;;85.13;48.40;;;10.30;97.20;;;;;;5056537;28;20036;-49
2024/03/04 11:03:26;;;;;;;73.53;45.50;;;10.40;97.20;;;;;;5054978;28;20027;-46
2024/03/04 11:05:54;;;;;;;88.70;50.35;;;10.60;96.70;;;;;;5057601;28;20398;-48
2024/03/04 11:08:27;;;;;;;88.50;50.63;;;10.70;96.10;;;;;;5055812;28;20021;-48
2024/03/04 11:11:07;;;;;;;92.43;53.75;;;10.90;96.00;;;;;;5056016;28;20536;-47
2024/03/04 11:13:58;;;;;;;77.85;49.40;;;11.10;95.00;;;;;;5053227;28;20124;-46
2024/03/04 11:16:37;;;;;;;90.03;47.00;;;11.30;94.80;;;;;;5056511;28;20386;-46
2024/03/04 11:19:19;;;;;;;75.80;45.03;;;11.40;93.50;;;;;;5054554;28;20028;-52
2024/03/04 11:21:46;;;;;;;78.90;48.15;;;11.50;92.60;;;;;;5053365;28;20505;-47
2024/03/04 11:24:13;;;;;;;66.07;41.38;;;11.60;92.90;;;;;;5059909;28;20025;-45
2024/03/04 11:26:40;;;;;;;65.05;41.55;;;11.80;92.90;;;;;;5055801;28;20020;-46
2024/03/04 11:29:06;;;;;;;64.82;38.67;;;11.90;92.30;;;;;;5055500;28;20028;-46
2024/03/04 11:31:32;;;;;;;76.75;46.67;;;12.00;92.20;;;;;;5055974;28;20047;-45
2024/03/04 11:33:59;;;;;;;58.33;37.55;;;12.00;91.00;;;;;;5054100;28;20028;-47
2024/03/04 11:36:25;;;;;;;58.90;35.92;;;12.00;90.60;;;;;;5055597;28;20078;-44
2024/03/04 11:38:51;;;;;;;65.32;41.60;;;12.10;90.80;;;;;;5054125;28;20028;-45
2024/03/04 11:41:38;;;;;;;68.07;41.75;;;12.00;89.50;;;;;;5052319;28;20059;-49
2024/03/04 11:44:04;;;;;;;61.65;39.58;;;12.10;88.90;;;;;;5052331;28;20017;-48
2024/03/04 11:46:32;;;;;;;57.35;36.97;;;11.90;88.00;;;;;;5058295;28;20070;-45
2024/03/04 11:49:24;;;;;;;65.43;41.20;;;11.90;88.90;;;;;;5057109;28;20029;-46
2024/03/04 11:51:58;;;;;;;62.38;40.33;;;11.80;88.20;;;;;;5058816;28;20389;-46
2024/03/04 11:54:43;;;;;;;69.05;42.00;;;11.80;88.70;;;;;;5058991;28;20033;-46
2024/03/04 11:57:08;;;;;;;65.22;40.67;;;11.70;88.70;;;;;;5059320;28;20032;-46
2024/03/04 11:59:39;;;;;;;67.80;41.63;;;11.80;89.30;;;;;;5058931;28;20490;-49
2024/03/04 12:02:11;;;;;;;62.58;40.40;;;11.80;89.00;;;;;;5059083;28;20028;-46
2024/03/04 12:04:40;;;;;;;64.40;40.30;;;11.80;88.60;;;;;;5058957;28;20033;-47
2024/03/04 12:07:06;;;;;;;71.03;40.05;;;11.90;88.70;;;;;;5059058;28;20036;-45
2024/03/04 12:09:34;;;;;;;62.70;38.70;;;11.90;88.00;;;;;;5058639;28;20027;-47
2024/03/04 12:12:03;;;;;;;60.47;37.80;;;11.90;87.90;;;;;;5060963;28;20137;-48
2024/03/04 12:14:29;;;;;;;58.22;37.45;;;11.90;88.00;;;;;;5060926;28;20482;-45
2024/03/04 12:16:55;;;;;;;64.35;38.13;;;11.90;87.70;;;;;;5054551;28;20028;-48
2024/03/04 12:19:21;;;;;;;62.08;37.78;;;12.00;87.80;;;;;;5058859;28;20290;-46
2024/03/04 12:21:48;;;;;;;60.45;37.03;;;12.00;87.60;;;;;;5054608;28;20029;-52
2024/03/04 12:24:19;;;;;;;57.42;35.33;;;12.00;87.40;;;;;;5055116;28;20092;-48
2024/03/04 12:26:49;;;;;;;52.70;33.85;;;12.10;87.40;;;;;;5052444;28;20064;-49
2024/03/04 12:29:23;;;;;;;55.38;34.67;;;12.10;87.00;;;;;;5052732;28;20020;-45
2024/03/04 12:31:53;;;;;;;58.60;36.47;;;12.20;86.60;;;;;;5052738;28;20117;-46